METAR AND TAF INFORMATION
METAR FOR OIMM
ADDS - METARS form results

(0403 UTC 02 June 2020)
Data provider http://aviationweather.gov/metar/data/
 
METAR text: OIMM 020400Z 06004KT CAVOK 29/04 Q1014 A2996
Conditions at: OIMM (MASHHAD (AFB/CIV, IR) observed 0400 UTC 02 June 2020
Temperature: 29.0°C (84°F)
Dewpoint: 4.0°C (39°F) [RH = 20%]
Pressure (altimeter): 29.94 inches Hg (1014.0 mb)
Winds: from the ENE (60 degrees) at 5 MPH (4 knots; 2.1 m/s)
Visibility: 6 or more miles (10+ km)
Ceiling: ceiling and visibility are OK
Clouds: unknown
Weather: no significant weather observed at this time

METAR text: OIMM 020330Z 06004KT CAVOK 29/05 Q1014 A2997
Conditions at: OIMM (MASHHAD (AFB/CIV, IR) observed 0330 UTC 02 June 2020
Temperature: 29.0°C (84°F)
Dewpoint: 5.0°C (41°F) [RH = 22%]
Pressure (altimeter): 29.94 inches Hg (1014.0 mb)
Winds: from the ENE (60 degrees) at 5 MPH (4 knots; 2.1 m/s)
Visibility: 6 or more miles (10+ km)
Ceiling: ceiling and visibility are OK
Clouds: unknown
Weather: no significant weather observed at this time

Forecast for: OIMM (MASHHAD (AFB/CIV, IR)
Text: TAF OIMM 012300Z 0200/0306 09008KT CAVOK
Forecast period: 0000 UTC 02 June 2020 to 0600 UTC 03 June 2020
Forecast type: FROM: standard forecast or significant change
Winds: from the E (90 degrees) at 9 MPH (8 knots; 4.1 m/s)
Visibility: 6 or more miles 10+ km)
Ceiling: unknown
Clouds: missing
Weather: NSW  (no significant weather)

 AIRPORT MAP

 RUNWAY INFORMATION
Runway 13L Runway length 12503 ft Runway width 148 ft
Runway elevation 3226 ft Runway displaced threshold 0 ft Runway heading 134
Runway 31R Runway length 12503 ft Runway width 148 ft
Runway elevation 3257 ft Runway displaced threshold 0 ft Runway heading 314
Runway 13R Runway length 12877 ft Runway width 148 ft
Runway elevation 3231 ft Runway displaced threshold 0 ft Runway heading 134
Runway 31L Runway length 12877 ft Runway width 148 ft
Runway elevation 3263 ft Runway displaced threshold 0 ft Runway heading 314

 AIRPORT FREQUENCIES
Type APP Name APP Frequency 127.3 MHZ
Type ATIS Name ATIS Frequency 126.4 MHZ
Type TWR Name TWR Frequency 118.1 MHZ

 AIRPORT NEAR NAVIGATION AIDS
Type TACAN Name Mashhad Frequency 111900 KHZ
Type VOR-DME Name Mashhad Frequency 114000 KHZ
Type NDB Name Mashhad Frequency 385 KHZ



Copyright @ Zagros Virtual Airline